Time;durP1;ratioP1;P1;durP2;ratioP2;P2;SDS_P1;SDS_P2;PMS_P1;PMS_P2;Temp;Humidity;BMP_temperature;BMP_pressure;BME280_temperature;BME280_humidity;BME280_pressure;Samples;Min_cycle;Max_cycle;Signal;HPM_P1;HPM_P2
2023/10/20 00:01:22;;;;;;;29.77;26.90;;;;;;;8.61;100.00;97142.81;6101495;23;20179;-83
2023/10/20 00:03:53;;;;;;;30.67;27.43;;;;;;;8.59;100.00;97146.78;6076735;23;20263;-83
2023/10/20 00:06:23;;;;;;;30.13;27.20;;;;;;;8.53;100.00;97130.00;6078429;23;20658;-82
2023/10/20 00:08:55;;;;;;;31.13;28.03;;;;;;;8.52;100.00;97130.25;6101646;23;20160;-83
2023/10/20 00:11:27;;;;;;;30.40;27.40;;;;;;;8.48;100.00;97114.00;6101490;23;20210;-83
2023/10/20 00:13:56;;;;;;;30.90;27.77;;;;;;;8.44;100.00;97123.59;6078043;23;20218;-83
2023/10/20 00:16:28;;;;;;;31.27;28.00;;;;;;;8.43;100.00;97116.66;6102185;23;20262;-82
2023/10/20 00:19:01;;;;;;;30.77;27.60;;;;;;;8.40;100.00;97104.63;6101763;23;20172;-83
2023/10/20 00:21:29;;;;;;;31.23;28.03;;;;;;;8.40;100.00;97115.28;6126647;23;20176;-82
2023/10/20 00:23:58;;;;;;;29.37;26.30;;;;;;;8.37;100.00;97105.16;6101219;23;20254;-85
2023/10/20 00:26:28;;;;;;;31.33;28.03;;;;;;;8.33;100.00;97104.09;6078310;23;20235;-81
2023/10/20 00:28:57;;;;;;;31.90;28.60;;;;;;;8.30;100.00;97103.84;6125003;23;20164;-83
2023/10/20 00:31:29;;;;;;;32.40;29.07;;;;;;;8.26;100.00;97095.53;6124728;23;20240;-82
2023/10/20 00:33:59;;;;;;;31.37;28.13;;;;;;;8.21;100.00;97092.06;6077718;23;20195;-83
2023/10/20 00:36:31;;;;;;;30.60;27.53;;;;;;;8.20;100.00;97104.59;6077578;23;20175;-83
2023/10/20 00:39:06;;;;;;;30.57;27.47;;;;;;;8.13;100.00;97090.72;6101879;23;20156;-83
2023/10/20 00:41:35;;;;;;;29.67;26.60;;;;;;;8.10;100.00;97067.25;6077059;23;20611;-82
2023/10/20 00:44:05;;;;;;;29.87;26.83;;;;;;;8.04;100.00;97062.97;6100577;23;20167;-84
2023/10/20 00:46:47;;;;;;;;;;;;;;;;;;;;;
2023/10/20 00:49:19;;;;;;;29.93;26.80;;;;;;;8.01;100.00;97062.69;6125279;23;20179;-82
2023/10/20 00:51:54;;;;;;;29.23;26.43;;;;;;;7.96;100.00;97066.16;6079535;23;20669;-82
2023/10/20 00:54:22;;;;;;;30.00;27.00;;;;;;;7.91;100.00;97061.63;6100741;23;20230;-82
2023/10/20 00:56:51;;;;;;;28.77;25.80;;;;;;;7.89;100.00;97058.41;6100925;23;20517;-81
2023/10/20 00:59:20;;;;;;;29.60;26.70;;;;;;;7.89;100.00;97057.59;6124940;23;20231;-84
2023/10/20 01:01:48;;;;;;;31.13;27.83;;;;;;;7.90;100.00;97053.88;6077288;23;20250;-82
2023/10/20 01:04:30;;;;;;;29.83;26.90;;;;;;;7.88;100.00;97059.50;6125825;23;20270;-82
2023/10/20 01:06:58;;;;;;;31.37;28.03;;;;;;;7.86;100.00;97050.94;6124530;23;20274;-81
2023/10/20 01:09:28;;;;;;;30.57;27.27;;;;;;;7.83;100.00;97053.34;6126007;23;20495;-82
2023/10/20 01:11:56;;;;;;;31.23;27.97;;;;;;;7.80;100.00;97037.88;6100984;23;20247;-83
2023/10/20 01:14:24;;;;;;;30.23;27.17;;;;;;;7.78;100.00;97030.16;6076835;23;20179;-81
2023/10/20 01:16:52;;;;;;;28.93;25.93;;;;;;;7.76;100.00;97032.28;6100636;23;20199;-81
2023/10/20 01:19:26;;;;;;;28.87;26.07;;;;;;;7.70;100.00;97025.31;6101130;23;20227;-81
2023/10/20 01:21:55;;;;;;;28.87;25.87;;;;;;;7.68;100.00;97011.47;6078042;23;20160;-83
2023/10/20 01:24:22;;;;;;;28.53;25.73;;;;;;;7.68;100.00;97019.47;6100510;23;20170;-81
2023/10/20 01:26:52;;;;;;;29.33;26.23;;;;;;;7.64;100.00;97020.25;6100454;23;20638;-82
2023/10/20 01:29:28;;;;;;;30.20;27.03;;;;;;;7.63;100.00;97026.66;6080453;23;20168;-81
2023/10/20 01:31:58;;;;;;;30.27;27.17;;;;;;;7.62;100.00;97027.72;6100262;23;20618;-82
2023/10/20 01:34:28;;;;;;;30.13;27.17;;;;;;;7.58;100.00;97021.31;6123521;23;20174;-84
2023/10/20 01:36:58;;;;;;;29.47;26.37;;;;;;;7.52;100.00;97015.97;6100298;23;20262;-82
2023/10/20 01:39:29;;;;;;;30.33;27.27;;;;;;;7.50;100.00;97004.78;6100086;23;20202;-81
2023/10/20 01:41:56;;;;;;;30.60;27.40;;;;;;;7.50;100.00;96996.78;6100172;23;20254;-83
2023/10/20 01:44:28;;;;;;;30.17;27.10;;;;;;;7.53;100.00;96992.78;6077952;23;20176;-82
2023/10/20 01:46:59;;;;;;;31.57;28.23;;;;;;;7.48;100.00;96995.44;6101177;23;20172;-81
2023/10/20 01:49:26;;;;;;;31.37;28.10;;;;;;;7.44;100.00;96997.84;6100304;23;20175;-82
2023/10/20 01:51:57;;;;;;;31.33;28.13;;;;;;;7.36;100.00;96982.38;6100834;23;20167;-80
2023/10/20 01:54:38;;;;;;;30.13;27.03;;;;;;;7.38;100.00;96992.75;6124136;23;20171;-81
2023/10/20 01:57:10;;;;;;;29.47;26.57;;;;;;;7.35;100.00;96987.97;6124466;23;20175;-81
2023/10/20 01:59:42;;;;;;;30.87;27.60;;;;;;;7.35;100.00;96978.09;6078550;23;20188;-81
2023/10/20 02:02:16;;;;;;;29.50;26.60;;;;;;;7.32;100.00;96981.31;6077550;23;20215;-81
2023/10/20 02:04:46;;;;;;;30.07;27.03;;;;;;;7.35;100.00;96977.31;6101443;23;20207;-84
2023/10/20 02:07:14;;;;;;;30.47;27.40;;;;;;;7.38;100.00;96974.09;6124365;23;20168;-82
2023/10/20 02:09:41;;;;;;;30.97;27.50;;;;;;;7.41;100.00;96968.28;6125784;23;20206;-81
2023/10/20 02:12:22;;;;;;;31.13;27.73;;;;;;;7.44;100.00;96959.75;6100392;23;20627;-84
2023/10/20 02:14:50;;;;;;;31.57;28.37;;;;;;;7.45;100.00;96962.16;6124810;23;20175;-82
2023/10/20 02:17:27;;;;;;;31.07;27.80;;;;;;;7.47;100.00;96952.00;6101585;23;20202;-83
2023/10/20 02:19:57;;;;;;;30.40;27.20;;;;;;;7.52;100.00;96957.34;6076783;23;20264;-82
2023/10/20 02:22:31;;;;;;;31.07;27.97;;;;;;;7.57;100.00;96950.44;6101230;23;20176;-82
2023/10/20 02:25:03;;;;;;;31.43;28.23;;;;;;;7.60;100.00;96948.06;6101329;23;20250;-81
2023/10/20 02:27:42;;;;;;;30.70;27.47;;;;;;;7.64;100.00;96948.31;6077486;23;20164;-83
2023/10/20 02:30:15;;;;;;;29.90;26.80;;;;;;;7.70;100.00;96948.03;6124275;23;20156;-81
2023/10/20 02:32:48;;;;;;;32.13;28.87;;;;;;;7.75;100.00;96961.38;6101655;23;20270;-82
2023/10/20 02:35:22;;;;;;;32.53;29.20;;;;;;;7.80;100.00;96950.72;6127200;23;20163;-82
2023/10/20 02:37:53;;;;;;;32.80;29.40;;;;;;;7.83;100.00;96934.19;6102383;23;20222;-81
2023/10/20 02:40:22;;;;;;;33.10;29.67;;;;;;;7.89;100.00;96934.97;6102291;23;20183;-82
2023/10/20 02:42:56;;;;;;;31.93;28.73;;;;;;;7.94;100.00;96924.31;6102358;23;20188;-81
2023/10/20 02:45:33;;;;;;;31.60;28.40;;;;;;;7.98;100.00;96926.19;6103998;23;20194;-81
2023/10/20 02:48:03;;;;;;;31.20;27.97;;;;;;;8.03;100.00;96925.38;6102087;23;20239;-84
2023/10/20 02:50:30;;;;;;;31.00;27.93;;;;;;;8.07;100.00;96925.66;6126213;23;20231;-81
2023/10/20 02:53:00;;;;;;;31.00;27.97;;;;;;;8.10;100.00;96928.56;6102735;23;20195;-82
2023/10/20 02:55:30;;;;;;;31.97;28.67;;;;;;;8.13;100.00;96921.88;6102165;23;20175;-86
2023/10/20 02:58:02;;;;;;;31.83;26.80;;;;;;;8.15;100.00;96912.56;6126489;23;20174;-82
2023/10/20 03:00:30;;;;;;;37.10;28.80;;;;;;;8.19;100.00;96915.50;6101694;23;20195;-81
2023/10/20 03:02:58;;;;;;;56.77;30.17;;;;;;;8.22;100.00;96909.59;6101615;23;20250;-82
2023/10/20 03:05:31;;;;;;;41.47;29.23;;;;;;;8.24;100.00;96913.63;6127679;23;20153;-83
2023/10/20 03:08:02;;;;;;;52.10;31.00;;;;;;;8.24;100.00;96902.16;6102601;23;20160;-82
2023/10/20 03:10:31;;;;;;;52.73;31.07;;;;;;;8.26;100.00;96902.66;6079075;23;20167;-82
2023/10/20 03:12:58;;;;;;;73.13;33.00;;;;;;;8.30;100.00;96899.25;6077585;23;20668;-83
2023/10/20 03:15:26;;;;;;;84.90;34.37;;;;;;;8.33;100.00;96900.56;6101612;23;20195;-82
2023/10/20 03:17:54;;;;;;;79.13;33.90;;;;;;;8.36;100.00;96897.34;6102311;23;20618;-82
2023/10/20 03:20:28;;;;;;;79.53;33.20;;;;;;;8.33;100.00;96912.03;6102594;23;20250;-82
2023/10/20 03:23:00;;;;;;;81.17;34.70;;;;;;;8.34;100.00;96910.16;6080193;23;20167;-82
2023/10/20 03:25:33;;;;;;;87.33;35.40;;;;;;;8.37;100.00;96913.06;6102286;23;20175;-83
2023/10/20 03:28:01;;;;;;;94.07;37.77;;;;;;;8.40;100.00;96901.06;6101774;23;20178;-82
2023/10/20 03:30:29;;;;;;;71.53;37.47;;;;;;;8.41;100.00;96916.00;6101782;23;20633;-84
2023/10/20 03:33:00;;;;;;;77.30;38.87;;;;;;;8.44;100.00;96912.81;6101555;23;20266;-82
2023/10/20 03:35:31;;;;;;;106.87;39.23;;;;;;;8.47;100.00;96908.78;6079305;23;20611;-82
2023/10/20 03:38:00;;;;;;;74.53;38.50;;;;;;;8.49;100.00;96910.09;6078223;23;20168;-83
2023/10/20 03:40:41;;;;;;;79.40;39.37;;;;;;;8.50;100.00;96909.03;6102691;23;20258;-82
2023/10/20 03:43:11;;;;;;;69.20;36.67;;;;;;;8.52;100.00;96903.44;6102940;23;20160;-82
2023/10/20 03:45:49;;;;;;;63.40;35.87;;;;;;;8.55;100.00;96914.34;6101833;23;20175;-82
2023/10/20 03:48:16;;;;;;;99.27;34.93;;;;;;;8.57;100.00;96906.09;6103002;23;20158;-82
2023/10/20 03:50:46;;;;;;;60.97;35.00;;;;;;;8.56;100.00;96893.81;6077698;23;20199;-84
2023/10/20 03:53:46;;;;;;;60.17;34.83;;;;;;;8.57;100.00;96884.75;6102276;23;20187;-83
2023/10/20 03:56:07;;;;;;;55.37;33.40;;;;;;;8.59;100.00;96894.06;6126197;23;20202;-84
2023/10/20 03:58:36;;;;;;;54.97;33.73;;;;;;;8.60;100.00;96893.00;6126046;23;20219;-81
2023/10/20 04:01:08;;;;;;;94.50;33.40;;;;;;;8.57;100.00;96882.06;6126108;23;20148;-85
2023/10/20 04:03:38;;;;;;;51.37;33.50;;;;;;;8.58;100.00;96886.34;6078249;23;20203;-85
2023/10/20 04:06:09;;;;;;;50.07;34.40;;;;;;;8.62;100.00;96898.06;6102191;23;20172;-84
2023/10/20 04:08:36;;;;;;;48.00;33.43;;;;;;;8.63;100.00;96897.78;6078599;23;20175;-82
2023/10/20 04:11:03;;;;;;;53.33;33.00;;;;;;;8.67;100.00;96903.38;6077671;23;20238;-84
2023/10/20 04:13:33;;;;;;;52.57;34.47;;;;;;;8.66;100.00;96893.78;6101364;23;20226;-84
2023/10/20 04:16:18;;;;;;;76.53;32.80;;;;;;;8.67;100.00;96895.38;6077007;23;20654;-86
2023/10/20 04:18:46;;;;;;;62.47;33.20;;;;;;;8.69;100.00;96883.34;6079793;23;20175;-84
2023/10/20 04:21:14;;;;;;;50.50;32.93;;;;;;;8.70;100.00;96878.81;6101192;23;20242;-85
2023/10/20 04:23:48;;;;;;;80.33;34.97;;;;;;;8.71;100.00;96867.88;6100539;23;20172;-84
2023/10/20 04:26:23;;;;;;;57.17;34.80;;;;;;;8.71;100.00;96861.72;6126104;23;20201;-84
2023/10/20 04:43:34;;;;;;;90.13;33.70;;;;;;;8.70;100.00;96860.13;6105318;23;20168;-83
2023/10/20 04:49:15;;;;;;;65.17;34.33;;;;;;;8.71;100.00;96854.53;6126415;23;20163;-85
2023/10/20 04:51:50;;;;;;;52.67;35.30;;;;;;;8.73;100.00;96856.91;6106805;23;20190;-87
2023/10/20 04:54:44;;;;;;;51.70;37.17;;;;;;;8.74;100.00;96837.94;6105806;23;20654;-84
2023/10/20 05:08:03;;;;;;;53.33;36.40;;;;;;;8.81;100.00;96835.78;6104368;23;20635;-82
2023/10/20 05:10:45;;;;;;;58.87;36.80;;;;;;;8.83;100.00;96835.50;6104920;23;20216;-83
2023/10/20 05:13:13;;;;;;;54.87;35.43;;;;;;;8.82;100.00;96841.91;6100871;23;20213;-84
2023/10/20 05:15:43;;;;;;;61.90;34.43;;;;;;;8.81;100.00;96833.13;6076754;23;20192;-84
2023/10/20 05:18:11;;;;;;;54.90;34.10;;;;;;;8.86;100.00;96815.47;6101366;23;20186;-83
2023/10/20 05:20:46;;;;;;;64.90;37.60;;;;;;;8.87;100.00;96817.84;6101068;23;20226;-83
2023/10/20 05:23:16;;;;;;;59.97;37.97;;;;;;;8.84;100.00;96818.41;6077359;23;20202;-84
2023/10/20 05:25:49;;;;;;;66.77;35.93;;;;;;;8.83;100.00;96819.47;6078490;23;20180;-84
2023/10/20 05:28:20;;;;;;;52.53;35.57;;;;;;;8.84;100.00;96813.06;6077931;23;20179;-84
2023/10/20 05:30:57;;;;;;;54.47;36.60;;;;;;;8.82;100.00;96816.00;6079617;23;20171;-83
2023/10/20 05:33:32;;;;;;;51.53;35.73;;;;;;;8.86;100.00;96815.47;6102787;23;20496;-83
2023/10/20 05:36:04;;;;;;;71.23;37.27;;;;;;;8.86;100.00;96818.94;6125164;23;20642;-84
2023/10/20 05:38:32;;;;;;;58.53;36.63;;;;;;;8.85;100.00;96812.00;6100770;23;20615;-86
2023/10/20 05:41:00;;;;;;;62.57;37.83;;;;;;;8.92;100.00;96814.34;6122866;23;20171;-85
2023/10/20 05:43:30;;;;;;;77.37;36.37;;;;;;;8.92;100.00;96807.13;6100351;23;20254;-85
2023/10/20 05:46:02;;;;;;;59.37;36.13;;;;;;;8.94;100.00;96813.00;6124746;23;20183;-86
2023/10/20 05:48:35;;;;;;;116.63;36.77;;;;;;;8.94;100.00;96807.66;6125085;23;20181;-83
2023/10/20 05:51:08;;;;;;;92.83;36.67;;;;;;;8.84;100.00;96805.84;6101001;23;20180;-84
2023/10/20 05:53:38;;;;;;;59.00;35.00;;;;;;;8.90;100.00;96805.81;6078730;23;20201;-83
2023/10/20 05:56:06;;;;;;;56.33;35.77;;;;;;;8.96;100.00;96804.72;6077279;23;20182;-83
2023/10/20 05:58:41;;;;;;;72.17;37.07;;;;;;;9.03;100.00;96786.50;6101740;23;20191;-84
2023/10/20 06:01:13;;;;;;;54.40;36.17;;;;;;;9.09;100.00;96798.75;6125210;23;20180;-84
2023/10/20 06:03:49;;;;;;;55.23;36.37;;;;;;;9.20;100.00;96808.28;6101384;23;20653;-86
2023/10/20 06:06:19;;;;;;;48.77;34.80;;;;;;;9.24;100.00;96804.75;6102642;23;20195;-84
2023/10/20 06:08:49;;;;;;;50.53;34.50;;;;;;;9.38;100.00;96817.50;6126821;23;20168;-83
2023/10/20 06:11:37;;;;;;;48.03;35.27;;;;;;;9.44;100.00;96821.72;6105945;23;20168;-83
2023/10/20 06:14:08;;;;;;;46.57;33.57;;;;;;;9.49;100.00;96832.38;6103756;23;20187;-85
2023/10/20 06:16:39;;;;;;;48.63;33.83;;;;;;;9.48;100.00;96823.53;6102940;23;20234;-84
2023/10/20 06:19:15;;;;;;;47.17;33.57;;;;;;;9.65;100.00;96826.63;6103951;23;20171;-86
2023/10/20 06:21:47;;;;;;;44.27;32.37;;;;;;;9.80;100.00;96823.00;6103366;23;20175;-84
2023/10/20 06:24:17;;;;;;;42.10;31.37;;;;;;;9.89;100.00;96829.31;6080624;23;20595;-85
2023/10/20 06:26:49;;;;;;;43.30;31.57;;;;;;;10.08;100.00;96827.50;6080687;23;20235;-83
2023/10/20 06:31:57;;;;;;;42.77;32.67;;;;;;;10.38;100.00;96813.03;6127154;23;20254;-84
2023/10/20 06:34:33;;;;;;;40.10;32.60;;;;;;;10.58;100.00;96812.00;6126370;23;20193;-84
2023/10/20 06:37:11;;;;;;;40.43;31.13;;;;;;;10.73;100.00;96798.38;6126656;23;20163;-85
2023/10/20 06:39:42;;;;;;;36.20;29.70;;;;;;;10.82;100.00;96779.81;6102843;23;20175;-83
2023/10/20 06:42:09;;;;;;;36.60;30.93;;;;;;;11.02;100.00;96772.25;6079259;23;20665;-84
2023/10/20 06:44:43;;;;;;;35.83;29.63;;;;;;;11.13;100.00;96759.50;6103993;23;20168;-84
2023/10/20 06:47:12;;;;;;;36.80;30.23;;;;;;;11.34;100.00;96762.63;6103319;23;20254;-84
2023/10/20 06:49:39;;;;;;;34.47;28.97;;;;;;;11.54;100.00;96764.19;6079002;23;20171;-84
2023/10/20 06:52:09;;;;;;;32.17;27.83;;;;;;;11.60;100.00;96763.81;6079707;23;20250;-85
2023/10/20 06:54:40;;;;;;;30.80;27.50;;;;;;;11.77;100.00;96764.06;6102610;23;20194;-84
2023/10/20 06:57:13;;;;;;;31.37;27.57;;;;;;;11.93;100.00;96763.78;6103253;23;20160;-83
2023/10/20 06:59:45;;;;;;;30.53;26.63;;;;;;;12.08;100.00;96758.94;6079935;23;20258;-84
2023/10/20 07:02:12;;;;;;;29.83;25.13;;;;;;;12.28;100.00;96749.66;6079169;23;20175;-85
2023/10/20 07:04:47;;;;;;;30.27;25.97;;;;;;;12.36;100.00;96744.38;6078632;23;20203;-84
2023/10/20 07:07:17;;;;;;;27.47;24.50;;;;;;;12.46;100.00;96740.69;6102771;23;20242;-84
2023/10/20 07:09:50;;;;;;;20.07;17.77;;;;;;;12.65;100.00;96719.84;6102388;23;20165;-84
2023/10/20 07:12:27;;;;;;;17.60;11.10;;;;;;;13.15;100.00;96720.59;6126403;23;20161;-83
2023/10/20 07:15:00;;;;;;;10.63;7.60;;;;;;;14.07;100.00;96700.97;6102937;23;20274;-83
2023/10/20 07:17:30;;;;;;;11.90;5.70;;;;;;;14.67;100.00;96699.50;6125377;23;20216;-84
2023/10/20 07:20:07;;;;;;;12.70;5.20;;;;;;;15.29;100.00;96689.16;6103886;23;20166;-83
2023/10/20 07:22:34;;;;;;;9.10;4.00;;;;;;;15.71;100.00;96690.97;6126094;23;20170;-84
2023/10/20 07:25:05;;;;;;;8.00;3.40;;;;;;;16.09;100.00;96690.16;6102100;23;20621;-83
2023/10/20 07:27:34;;;;;;;10.50;3.67;;;;;;;16.47;100.00;96685.47;6079325;23;20164;-83
2023/10/20 07:30:06;;;;;;;6.53;3.20;;;;;;;16.86;100.00;96688.88;6102435;23;20192;-83
2023/10/20 07:32:35;;;;;;;8.43;3.40;;;;;;;17.12;100.00;96687.50;6079589;23;20176;-83
2023/10/20 07:35:06;;;;;;;8.30;3.00;;;;;;;17.52;100.00;96697.81;6101516;23;20188;-83
2023/10/20 07:37:38;;;;;;;7.47;2.97;;;;;;;17.74;100.00;96691.22;6102375;23;20199;-83
2023/10/20 07:40:07;;;;;;;4.90;3.07;;;;;;;17.94;100.00;96688.41;6077676;23;20214;-83
2023/10/20 07:42:42;;;;;;;7.83;3.23;;;;;;;18.22;100.00;96690.44;6078969;23;20206;-82
2023/10/20 07:45:12;;;;;;;6.93;2.97;;;;;;;18.46;100.00;96690.44;6101509;23;20198;-83
2023/10/20 07:47:43;;;;;;;4.73;2.90;;;;;;;18.64;100.00;96680.16;6102144;23;20161;-82
2023/10/20 07:50:13;;;;;;;6.40;3.30;;;;;;;18.76;100.00;96677.38;6101506;23;20615;-83
2023/10/20 07:52:44;;;;;;;7.40;3.57;;;;;;;18.99;100.00;96678.44;6102511;23;20173;-82
2023/10/20 07:55:12;;;;;;;6.60;2.87;;;;;;;19.12;100.00;96671.06;6100990;23;20243;-83
2023/10/20 07:57:44;;;;;;;10.50;3.40;;;;;;;19.21;100.00;96661.63;6077525;23;20180;-82
2023/10/20 08:00:17;;;;;;;6.70;3.00;;;;;;;19.22;100.00;96662.44;6101919;23;20286;-82
2023/10/20 08:02:50;;;;;;;6.27;2.30;;;;;;;19.40;100.00;96652.03;6101782;23;20549;-83
2023/10/20 08:05:42;;;;;;;6.23;3.00;;;;;;;19.40;100.00;96646.63;6071316;23;20174;-83
2023/10/20 08:08:10;;;;;;;5.93;2.67;;;;;;;19.44;100.00;96658.38;6095332;23;20170;-83
2023/10/20 08:10:48;;;;;;;5.97;2.60;;;;;;;19.50;100.00;96657.78;6096366;23;20161;-81
2023/10/20 08:13:17;;;;;;;7.80;3.10;;;;;;;19.59;100.00;96657.63;6071401;23;20169;-83
2023/10/20 08:15:45;;;;;;;6.83;2.83;;;;;;;19.62;100.00;96635.97;6071042;23;20215;-82
2023/10/20 08:18:16;;;;;;;8.03;2.80;;;;;;;19.63;100.00;96639.47;6048640;23;20177;-82
2023/10/20 08:20:47;;;;;;;5.03;2.70;;;;;;;19.69;100.00;96638.84;6047807;23;20178;-82
2023/10/20 08:23:17;;;;;;;5.87;2.43;;;;;;;19.76;100.00;96617.31;6048409;23;20164;-83
2023/10/20 08:25:49;;;;;;;6.37;2.53;;;;;;;19.80;100.00;96611.97;6049269;23;20159;-85
2023/10/20 08:28:18;;;;;;;6.80;3.10;;;;;;;20.01;100.00;96622.56;6072409;23;20225;-83
2023/10/20 08:30:46;;;;;;;7.43;3.27;;;;;;;19.93;100.00;96654.19;6047714;23;20172;-82
2023/10/20 08:33:22;;;;;;;5.97;2.67;;;;;;;20.08;100.00;96652.59;6048370;23;20226;-84
2023/10/20 08:35:57;;;;;;;7.03;2.53;;;;;;;20.18;100.00;96652.06;6027096;23;20251;-83
2023/10/20 08:38:47;;;;;;;6.23;2.50;;;;;;;20.23;100.00;96651.78;6055739;23;20182;-83
2023/10/20 08:41:22;;;;;;;10.43;2.90;;;;;;;20.46;100.00;96660.91;6047727;23;20163;-82
2023/10/20 08:43:52;;;;;;;6.63;2.80;;;;;;;20.45;100.00;96672.91;6024772;23;20162;-82
2023/10/20 08:46:24;;;;;;;7.17;2.50;;;;;;;20.53;100.00;96652.88;6023668;23;20177;-82
2023/10/20 08:49:02;;;;;;;5.90;2.80;;;;;;;20.60;100.00;96658.50;6049878;23;20175;-84
2023/10/20 08:51:30;;;;;;;7.30;2.80;;;;;;;20.71;100.00;96652.50;6047759;23;20467;-82
2023/10/20 08:54:20;;;;;;;6.60;2.60;;;;;;;20.75;100.00;96656.84;6094566;23;20182;-82
2023/10/20 08:57:09;;;;;;;8.27;2.70;;;;;;;20.65;100.00;96639.16;6056709;23;20282;-82
2023/10/20 08:59:50;;;;;;;7.23;2.73;;;;;;;20.71;100.00;96626.06;6047981;23;20169;-82
2023/10/20 09:02:21;;;;;;;7.40;2.90;;;;;;;20.77;100.00;96634.72;6025019;23;20229;-82
2023/10/20 09:04:52;;;;;;;9.80;3.10;;;;;;;20.76;100.00;96622.28;6064105;23;20233;-82
2023/10/20 09:07:23;;;;;;;9.27;3.60;;;;;;;20.73;100.00;96612.88;6100191;23;20175;-81
2023/10/20 09:09:54;;;;;;;10.07;3.50;;;;;;;20.72;100.00;96614.03;6125273;23;20195;-82
2023/10/20 09:12:27;;;;;;;5.73;3.10;;;;;;;20.70;100.00;96601.94;6124177;23;20178;-82
2023/10/20 09:14:57;;;;;;;8.10;3.30;;;;;;;20.68;100.00;96591.41;6100014;23;20188;-82
2023/10/20 09:17:41;;;;;;;8.13;2.90;;;;;;;20.62;100.00;96590.13;6101434;23;20187;-83
2023/10/20 09:20:14;;;;;;;7.37;3.10;;;;;;;20.62;100.00;96585.47;6124081;23;20182;-82
2023/10/20 09:22:49;;;;;;;8.97;3.30;;;;;;;20.68;100.00;96596.84;6124637;23;20586;-81
2023/10/20 09:25:22;;;;;;;8.47;3.07;;;;;;;20.71;100.00;96598.09;6076664;23;20169;-82
2023/10/20 09:27:51;;;;;;;7.33;3.13;;;;;;;20.63;100.00;96605.28;6100101;23;20169;-82
2023/10/20 09:30:19;;;;;;;6.73;3.23;;;;;;;20.76;100.00;96604.03;6123769;23;20184;-82
2023/10/20 09:32:47;;;;;;;10.33;3.20;;;;;;;20.72;100.00;96599.66;6100063;23;20616;-82
2023/10/20 09:35:16;;;;;;;9.43;3.80;;;;;;;20.63;100.00;96621.63;6099478;23;20219;-83
2023/10/20 09:37:48;;;;;;;9.80;3.70;;;;;;;20.72;100.00;96603.16;6100114;23;20271;-82
2023/10/20 09:40:19;;;;;;;5.33;3.03;;;;;;;20.67;100.00;96592.56;6100104;23;20157;-82
2023/10/20 09:43:19;;;;;;;5.87;3.53;;;;;;;20.71;100.00;96607.03;6101186;23;20173;-82
2023/10/20 09:46:02;;;;;;;8.77;3.30;;;;;;;20.78;100.00;96609.88;6100596;23;20174;-83
2023/10/20 09:48:32;;;;;;;9.77;3.53;;;;;;;20.93;100.00;96611.75;6100015;23;20230;-82
2023/10/20 09:51:03;;;;;;;6.40;3.47;;;;;;;20.98;100.00;96610.66;6123938;23;20207;-82
2023/10/20 09:53:36;;;;;;;8.47;3.37;;;;;;;21.06;100.00;96610.44;6100353;23;20220;-81
2023/10/20 09:56:07;;;;;;;7.73;3.23;;;;;;;21.17;100.00;96605.25;6099750;23;20195;-81
2023/10/20 09:58:36;;;;;;;8.13;3.50;;;;;;;21.25;100.00;96617.81;6123686;23;20177;-81
2023/10/20 10:01:12;;;;;;;7.47;3.27;;;;;;;21.40;100.00;96594.38;6122961;23;20178;-82
2023/10/20 10:04:00;;;;;;;6.80;3.10;;;;;;;21.63;100.00;96592.44;6123765;23;20272;-81
2023/10/20 10:06:37;;;;;;;7.00;3.03;;;;;;;21.92;100.00;96569.94;6099902;23;20179;-84
2023/10/20 10:09:05;;;;;;;6.22;2.95;;;;;;;22.22;100.00;96566.47;6100202;23;20177;-83
2023/10/20 10:11:42;;;;;;;7.90;3.45;;;;;;;22.44;100.00;96567.56;6075461;23;20181;-82
2023/10/20 10:14:20;;;;;;;8.30;3.33;;;;;;;22.47;100.00;96558.63;6101758;23;20167;-82
2023/10/20 10:16:55;;;;;;;8.23;3.17;;;;;;;22.72;100.00;96562.47;6123702;23;20196;-82
2023/10/20 10:19:28;;;;;;;10.23;3.35;;;;;;;22.85;100.00;96539.22;6124224;23;20203;-81
2023/10/20 10:22:00;;;;;;;6.78;2.67;;;;;;;22.77;100.00;96541.09;6100342;23;20168;-82
2023/10/20 10:24:58;;;;;;;8.30;3.00;;;;;;;22.76;100.00;96536.81;6124071;23;20167;-82
2023/10/20 10:27:30;;;;;;;8.85;3.30;;;;;;;22.89;100.00;96548.25;6123657;23;20171;-83
2023/10/20 10:30:11;;;;;;;10.82;3.60;;;;;;;22.79;100.00;96532.53;6124287;23;20250;-82
2023/10/20 10:32:47;;;;;;;6.80;2.85;;;;;;;22.86;100.00;96510.78;6102630;23;20160;-81
2023/10/20 10:35:20;;;;;;;9.98;3.97;;;;;;;22.93;100.00;96518.25;6123399;23;20184;-82
2023/10/20 10:37:52;;;;;;;6.50;2.95;;;;;;;22.86;100.00;96534.56;6123523;23;20167;-82
2023/10/20 10:40:23;;;;;;;9.02;2.83;;;;;;;22.91;100.00;96540.44;6100117;23;20194;-82
2023/10/20 10:43:00;;;;;;;8.65;2.80;;;;;;;22.91;100.00;96551.38;6101597;23;20211;-81
2023/10/20 10:45:31;;;;;;;8.43;3.15;;;;;;;22.76;100.00;96557.84;6123557;23;20168;-82
2023/10/20 10:48:08;;;;;;;7.97;3.20;;;;;;;22.77;100.00;96552.00;6123751;23;20168;-81
2023/10/20 10:50:45;;;;;;;6.60;3.13;;;;;;;22.36;100.00;96540.19;6122765;23;20639;-81
2023/10/20 10:53:16;;;;;;;5.82;2.88;;;;;;;22.33;100.00;96540.13;6125152;23;20228;-81
2023/10/20 10:55:45;;;;;;;7.82;3.03;;;;;;;22.26;100.00;96549.00;6124599;23;20188;-81
2023/10/20 10:58:14;;;;;;;5.32;2.90;;;;;;;22.12;100.00;96550.75;6124977;23;20164;-81
2023/10/20 11:00:47;;;;;;;6.10;2.90;;;;;;;22.03;100.00;96555.69;6126246;23;20169;-82
2023/10/20 11:03:19;;;;;;;5.20;2.72;;;;;;;22.06;100.00;96563.13;6125113;23;20219;-81
2023/10/20 11:05:54;;;;;;;6.07;2.90;;;;;;;22.02;100.00;96552.19;6102623;23;20160;-82
2023/10/20 11:08:22;;;;;;;9.55;3.35;;;;;;;22.07;100.00;96559.25;6101389;23;20180;-81
2023/10/20 11:10:53;;;;;;;6.40;3.30;;;;;;;22.07;100.00;96567.44;6125091;23;20182;-82
2023/10/20 11:13:27;;;;;;;5.53;2.67;;;;;;;22.19;100.00;96564.47;6102120;23;20163;-81
2023/10/20 11:16:00;;;;;;;5.38;2.80;;;;;;;22.13;100.00;96566.75;6101892;23;20270;-82
2023/10/20 11:18:32;;;;;;;6.70;3.30;;;;;;;22.08;100.00;96574.44;6101466;23;20187;-82
2023/10/20 11:21:03;;;;;;;5.05;3.13;;;;;;;22.26;100.00;96570.03;6078960;23;20215;-81
2023/10/20 11:23:32;;;;;;;8.95;3.05;;;;;;;22.35;100.00;96562.34;6126617;23;20223;-81
2023/10/20 11:26:20;;;;;;;8.18;3.00;;;;;;;22.31;100.00;96575.94;6101908;23;20248;-81
2023/10/20 11:28:53;;;;;;;7.03;2.92;;;;;;;22.36;100.00;96575.63;6102717;23;20170;-82
2023/10/20 11:31:20;;;;;;;7.47;2.97;;;;;;;22.45;100.00;96566.38;6124638;23;20192;-81
2023/10/20 11:33:56;;;;;;;7.10;2.80;;;;;;;22.40;100.00;96573.72;6125186;23;20203;-81
2023/10/20 11:36:25;;;;;;;6.10;2.60;;;;;;;22.43;100.00;96580.41;6101352;23;20179;-82
2023/10/20 11:38:55;;;;;;;8.00;2.70;;;;;;;22.41;100.00;96571.78;6126560;23;20219;-82
2023/10/20 11:41:25;;;;;;;7.45;2.75;;;;;;;22.33;100.00;96567.41;6101026;23;20166;-81
2023/10/20 11:43:53;;;;;;;10.02;2.95;;;;;;;22.36;100.00;96563.94;6125116;23;20168;-81
2023/10/20 11:46:25;;;;;;;9.07;2.60;;;;;;;22.43;100.00;96565.97;6100972;23;20164;-81
2023/10/20 11:48:53;;;;;;;9.70;3.20;;;;;;;22.35;100.00;96574.06;6124503;23;20174;-81
2023/10/20 11:51:21;;;;;;;5.72;2.95;;;;;;;22.36;100.00;96559.25;6123363;23;20172;-82
2023/10/20 11:53:50;;;;;;;7.90;2.83;;;;;;;22.30;100.00;96544.38;6124559;23;20168;-83
2023/10/20 11:56:19;;;;;;;5.57;2.83;;;;;;;22.31;100.00;96536.97;6100117;23;20196;-82
2023/10/20 11:58:51;;;;;;;7.75;2.85;;;;;;;22.29;100.00;96542.81;6124555;23;20562;-83
2023/10/20 12:01:31;;;;;;;8.77;3.15;;;;;;;22.24;100.00;96539.63;6078784;23;20265;-83
2023/10/20 12:04:08;;;;;;;7.95;2.90;;;;;;;22.18;100.00;96557.44;6123783;23;20610;-82
2023/10/20 12:06:39;;;;;;;8.90;3.20;;;;;;;22.17;100.00;96550.41;6124025;23;20176;-82
2023/10/20 12:09:08;;;;;;;10.07;3.33;;;;;;;22.10;100.00;96558.53;6124436;23;20625;-82
2023/10/20 12:11:39;;;;;;;9.30;3.30;;;;;;;22.09;100.00;96556.94;6125195;23;20168;-82
2023/10/20 12:14:14;;;;;;;6.85;3.58;;;;;;;22.19;100.00;96545.41;6124834;23;20168;-82
2023/10/20 12:16:42;;;;;;;8.02;3.30;;;;;;;22.17;100.00;96566.78;6098796;23;20206;-83